Time;durP1;ratioP1;P1;durP2;ratioP2;P2;SDS_P1;SDS_P2;PMS_P1;PMS_P2;Temp;Humidity;BMP_temperature;BMP_pressure;BME280_temperature;BME280_humidity;BME280_pressure;Samples;Min_cycle;Max_cycle;Signal;HPM_P1;HPM_P2
2022/07/15 00:00:27;;;;;;;5.15;1.60;;;17.40;99.90;;;;;;5077375;28;20071;-70
2022/07/15 00:02:52;;;;;;;4.07;1.83;;;17.30;99.90;;;;;;5076679;28;20040;-72
2022/07/15 00:05:19;;;;;;;5.45;1.50;;;17.30;99.90;;;;;;5076649;28;20385;-72
2022/07/15 00:07:45;;;;;;;6.75;1.50;;;17.20;99.90;;;;;;5077196;28;20103;-71
2022/07/15 00:10:14;;;;;;;4.53;1.42;;;17.30;99.90;;;;;;5077142;28;20035;-71
2022/07/15 00:12:47;;;;;;;5.47;1.70;;;17.20;99.90;;;;;;5077358;28;20107;-69
2022/07/15 00:15:14;;;;;;;4.75;1.35;;;17.20;99.90;;;;;;5078572;28;20027;-72
2022/07/15 00:17:41;;;;;;;5.20;1.65;;;17.20;99.90;;;;;;5081240;28;20040;-69
2022/07/15 00:20:07;;;;;;;7.30;1.48;;;17.20;99.90;;;;;;5081117;28;20032;-71
2022/07/15 00:22:33;;;;;;;4.70;1.67;;;17.10;99.90;;;;;;5079873;28;20111;-71
2022/07/15 00:24:59;;;;;;;7.05;1.30;;;17.10;99.90;;;;;;5080868;28;20441;-70
2022/07/15 00:27:25;;;;;;;7.05;1.67;;;17.10;99.90;;;;;;5080787;28;20400;-70
2022/07/15 00:29:51;;;;;;;5.20;1.80;;;17.10;99.90;;;;;;5080050;28;20035;-71
2022/07/15 00:32:18;;;;;;;6.43;1.60;;;17.00;99.90;;;;;;5081016;28;20335;-70
2022/07/15 00:34:43;;;;;;;5.40;1.48;;;17.10;99.90;;;;;;5080531;28;20345;-72
2022/07/15 00:37:09;;;;;;;6.38;1.55;;;17.00;99.90;;;;;;5080709;28;20056;-71
2022/07/15 00:39:36;;;;;;;8.15;1.45;;;17.00;99.90;;;;;;5079789;28;20031;-70
2022/07/15 00:42:01;;;;;;;4.78;1.25;;;17.10;99.90;;;;;;5079919;28;20037;-72
2022/07/15 00:44:27;;;;;;;4.72;1.50;;;17.10;99.90;;;;;;5080686;28;20101;-72
2022/07/15 00:46:53;;;;;;;4.78;1.20;;;17.10;99.90;;;;;;5080347;28;20074;-72
2022/07/15 00:49:20;;;;;;;7.53;1.52;;;17.00;99.90;;;;;;5080439;28;20105;-72
2022/07/15 00:51:54;;;;;;;6.28;1.30;;;17.00;99.90;;;;;;5079455;28;20021;-72
2022/07/15 00:54:24;;;;;;;8.13;1.50;;;17.00;99.90;;;;;;5080243;28;20032;-72
2022/07/15 00:56:57;;;;;;;4.15;1.30;;;17.00;99.90;;;;;;5079974;28;20166;-71
2022/07/15 00:59:28;;;;;;;4.45;1.25;;;17.00;99.90;;;;;;5080427;28;20032;-71
2022/07/15 01:01:56;;;;;;;4.47;1.15;;;16.90;99.90;;;;;;5080389;28;20142;-70
2022/07/15 01:04:23;;;;;;;3.90;1.55;;;16.90;99.90;;;;;;5080237;28;20063;-69
2022/07/15 01:06:49;;;;;;;3.67;1.15;;;16.90;99.90;;;;;;5079203;28;20086;-72
2022/07/15 01:09:15;;;;;;;4.28;1.30;;;16.90;99.90;;;;;;5079988;28;20032;-72
2022/07/15 01:11:41;;;;;;;5.70;1.25;;;16.90;99.90;;;;;;5079950;28;20112;-72
2022/07/15 01:14:08;;;;;;;3.92;1.17;;;16.80;99.90;;;;;;5079458;28;20090;-71
2022/07/15 01:16:34;;;;;;;5.70;1.30;;;16.80;99.90;;;;;;5079271;28;20028;-71
2022/07/15 01:19:00;;;;;;;7.53;1.52;;;16.70;99.90;;;;;;5079143;28;20029;-71
2022/07/15 01:21:34;;;;;;;5.20;1.30;;;16.70;99.90;;;;;;5079625;28;20090;-71
2022/07/15 01:24:00;;;;;;;4.75;1.17;;;16.70;99.90;;;;;;5079062;28;20024;-70
2022/07/15 01:26:38;;;;;;;7.00;1.50;;;16.70;99.90;;;;;;5078264;28;20505;-70
2022/07/15 01:29:04;;;;;;;5.13;1.52;;;16.80;99.90;;;;;;5078896;28;20115;-70
2022/07/15 01:31:30;;;;;;;5.75;1.50;;;16.80;99.90;;;;;;5079109;28;20404;-71
2022/07/15 01:33:59;;;;;;;4.80;1.55;;;16.70;99.90;;;;;;5078726;28;20071;-70
2022/07/15 01:36:25;;;;;;;6.03;1.25;;;16.70;99.90;;;;;;5079187;28;20407;-70
2022/07/15 01:38:57;;;;;;;6.30;1.30;;;16.70;99.90;;;;;;5079392;28;20052;-72
2022/07/15 01:41:24;;;;;;;6.28;1.58;;;16.70;99.90;;;;;;5079123;28;20129;-69
2022/07/15 01:43:50;;;;;;;5.30;1.50;;;16.80;99.90;;;;;;5078653;28;20063;-72
2022/07/15 01:46:16;;;;;;;5.30;1.52;;;16.80;99.90;;;;;;5079132;28;20036;-72
2022/07/15 01:51:42;;;;;;;6.00;1.33;;;16.70;99.90;;;;;;5078502;28;20101;-71
2022/07/15 01:54:08;;;;;;;5.80;1.30;;;16.70;99.90;;;;;;5078486;28;20040;-72
2022/07/15 01:56:36;;;;;;;6.03;1.50;;;16.70;99.90;;;;;;5078259;28;20052;-71
2022/07/15 01:59:02;;;;;;;5.07;1.30;;;16.60;99.90;;;;;;5078525;28;20025;-70
2022/07/15 02:01:29;;;;;;;5.55;1.30;;;16.60;99.90;;;;;;5078845;28;20437;-70
2022/07/15 02:03:56;;;;;;;5.28;1.30;;;16.60;99.90;;;;;;5061733;28;20032;-71
2022/07/15 02:06:22;;;;;;;6.38;1.30;;;16.60;99.90;;;;;;5078359;28;20036;-72
2022/07/15 02:08:48;;;;;;;4.45;1.35;;;16.60;99.90;;;;;;5078081;28;20422;-71
2022/07/15 02:11:16;;;;;;;3.47;1.23;;;16.60;99.90;;;;;;5078170;28;20397;-71
2022/07/15 02:13:46;;;;;;;4.53;1.38;;;16.60;99.90;;;;;;5061937;28;20123;-70
2022/07/15 02:16:12;;;;;;;6.70;1.30;;;16.60;99.90;;;;;;5077935;28;20032;-70
2022/07/15 02:18:38;;;;;;;5.20;1.02;;;16.50;99.90;;;;;;5078076;28;20039;-72
2022/07/15 02:21:04;;;;;;;6.40;1.38;;;16.60;99.90;;;;;;5078138;28;20036;-72
2022/07/15 02:23:30;;;;;;;5.22;1.27;;;16.60;99.90;;;;;;5077857;28;20031;-72
2022/07/15 02:25:56;;;;;;;8.23;1.60;;;16.60;99.90;;;;;;5077892;28;20418;-71
2022/07/15 02:28:25;;;;;;;9.73;1.73;;;16.50;99.90;;;;;;5078163;28;20057;-71
2022/07/15 02:30:51;;;;;;;5.00;1.42;;;16.50;99.90;;;;;;5077755;28;20039;-71
2022/07/15 02:33:18;;;;;;;4.50;1.90;;;16.50;99.90;;;;;;5077473;28;20293;-71
2022/07/15 02:35:43;;;;;;;5.75;1.55;;;16.50;99.90;;;;;;5077589;28;20048;-71
2022/07/15 02:38:10;;;;;;;6.20;1.50;;;16.40;99.90;;;;;;5078006;28;20365;-71
2022/07/15 02:40:37;;;;;;;4.45;1.23;;;16.40;99.90;;;;;;5077392;28;20082;-71
2022/07/15 02:43:03;;;;;;;5.32;1.35;;;16.30;99.90;;;;;;5078026;28;20083;-70
2022/07/15 02:45:35;;;;;;;9.93;1.58;;;16.40;99.90;;;;;;5077347;28;20025;-69
2022/07/15 02:48:05;;;;;;;3.95;1.20;;;16.30;99.90;;;;;;5077615;28;20032;-71
2022/07/15 02:50:34;;;;;;;7.28;1.30;;;16.40;99.90;;;;;;5061274;28;20396;-71
2022/07/15 02:53:02;;;;;;;5.28;1.48;;;16.40;99.90;;;;;;5077050;28;20131;-71
2022/07/15 02:55:29;;;;;;;5.40;1.38;;;16.30;99.90;;;;;;5077110;28;20043;-71
2022/07/15 02:57:55;;;;;;;6.22;1.80;;;16.30;99.90;;;;;;5077608;28;20047;-71
2022/07/15 03:00:23;;;;;;;4.30;1.30;;;16.30;99.90;;;;;;5077059;28;20032;-71
2022/07/15 03:02:54;;;;;;;4.18;1.40;;;16.30;99.90;;;;;;5077111;28;20041;-70
2022/07/15 03:05:20;;;;;;;6.72;1.50;;;16.20;99.90;;;;;;5077061;28;20024;-72
2022/07/15 03:07:46;;;;;;;6.78;1.45;;;16.30;99.90;;;;;;5077918;28;20030;-72
2022/07/15 03:10:16;;;;;;;6.32;1.38;;;16.30;99.90;;;;;;5077017;28;20028;-72
2022/07/15 03:12:42;;;;;;;6.40;1.50;;;16.30;99.90;;;;;;5060573;28;20434;-71
2022/07/15 03:15:10;;;;;;;4.25;1.60;;;16.30;99.90;;;;;;5077072;28;20029;-71
2022/07/15 03:17:35;;;;;;;4.07;1.27;;;16.20;99.90;;;;;;5078136;28;20025;-72
2022/07/15 03:20:01;;;;;;;5.95;1.38;;;16.20;99.90;;;;;;5077797;28;20031;-70
2022/07/15 03:22:29;;;;;;;3.97;1.40;;;16.30;99.90;;;;;;5077034;28;20058;-70
2022/07/15 03:24:55;;;;;;;3.58;1.10;;;16.30;99.90;;;;;;5077016;28;20044;-71
2022/07/15 03:27:21;;;;;;;6.10;1.63;;;16.30;99.90;;;;;;5076923;28;20036;-70
2022/07/15 03:29:49;;;;;;;5.13;1.17;;;16.30;99.90;;;;;;5060525;28;20032;-71
2022/07/15 03:32:15;;;;;;;5.57;1.38;;;16.30;99.90;;;;;;5076830;28;20092;-71
2022/07/15 03:34:43;;;;;;;4.85;1.30;;;16.30;99.90;;;;;;5076888;28;20033;-70
2022/07/15 03:37:09;;;;;;;5.50;1.77;;;16.30;99.90;;;;;;5076923;28;20060;-71
2022/07/15 03:39:35;;;;;;;3.90;1.40;;;16.20;99.90;;;;;;5077709;28;20028;-72
2022/07/15 03:42:01;;;;;;;4.95;1.85;;;16.20;99.90;;;;;;5076877;28;20040;-69
2022/07/15 03:44:27;;;;;;;5.43;1.30;;;16.20;99.90;;;;;;5076762;28;20020;-71
2022/07/15 03:46:53;;;;;;;9.65;1.70;;;16.20;99.90;;;;;;5077695;28;20035;-71
2022/07/15 03:49:19;;;;;;;7.25;1.90;;;16.20;99.90;;;;;;5078145;28;20040;-72
2022/07/15 03:51:45;;;;;;;6.20;1.63;;;16.20;99.90;;;;;;5080669;28;20029;-71
2022/07/15 03:54:12;;;;;;;8.63;2.05;;;16.20;99.90;;;;;;5081090;28;20086;-71
2022/07/15 03:56:38;;;;;;;9.13;2.20;;;16.10;99.90;;;;;;5081516;28;20082;-71
2022/07/15 03:59:04;;;;;;;5.95;1.98;;;16.00;99.90;;;;;;5063781;28;20075;-72
2022/07/15 04:01:30;;;;;;;7.05;2.00;;;15.90;99.90;;;;;;5080755;28;20060;-72
2022/07/15 04:03:56;;;;;;;5.45;1.90;;;16.00;99.90;;;;;;5081632;28;20067;-71
2022/07/15 04:06:24;;;;;;;10.52;1.85;;;16.00;99.90;;;;;;5081393;28;20025;-71
2022/07/15 04:08:50;;;;;;;5.85;1.80;;;16.00;99.90;;;;;;5080286;28;20029;-70
2022/07/15 04:11:16;;;;;;;5.28;1.90;;;16.00;99.90;;;;;;5080568;28;20032;-72
2022/07/15 04:13:42;;;;;;;8.10;2.25;;;16.00;99.90;;;;;;5080559;28;20032;-74
2022/07/15 04:16:11;;;;;;;9.15;2.15;;;16.00;99.90;;;;;;5081149;28;20044;-70
2022/07/15 04:18:37;;;;;;;6.18;2.30;;;16.00;99.90;;;;;;5081193;28;20052;-72
2022/07/15 04:21:03;;;;;;;4.18;2.17;;;16.00;99.90;;;;;;5081047;28;20059;-72
2022/07/15 04:23:30;;;;;;;6.43;2.13;;;16.00;99.90;;;;;;5080746;28;20388;-70
2022/07/15 04:25:55;;;;;;;6.50;2.28;;;16.00;99.90;;;;;;5080286;28;20025;-71
2022/07/15 04:28:22;;;;;;;6.55;2.00;;;16.10;99.90;;;;;;5080778;28;20074;-72
2022/07/15 04:30:49;;;;;;;5.53;1.90;;;16.20;99.90;;;;;;5080809;28;20430;-71
2022/07/15 04:33:15;;;;;;;7.40;2.33;;;16.30;99.90;;;;;;5080117;28;20177;-72
2022/07/15 04:35:42;;;;;;;5.60;2.00;;;16.40;99.90;;;;;;5079949;28;20025;-70
2022/07/15 04:38:09;;;;;;;7.05;2.40;;;16.40;99.90;;;;;;5080842;28;20585;-72
2022/07/15 04:40:35;;;;;;;9.27;2.55;;;16.60;99.90;;;;;;5079681;28;20031;-72
2022/07/15 04:43:04;;;;;;;6.85;2.45;;;16.60;99.90;;;;;;5063427;28;20312;-71
2022/07/15 04:45:29;;;;;;;6.00;2.20;;;16.60;99.90;;;;;;5046419;28;20032;-72
2022/07/15 04:47:56;;;;;;;6.55;2.03;;;16.80;99.90;;;;;;5079684;28;20025;-72
2022/07/15 04:50:51;;;;;;;8.35;2.60;;;16.90;99.90;;;;;;5079746;28;20032;-70
2022/07/15 04:53:19;;;;;;;5.93;2.05;;;16.90;99.90;;;;;;5080678;28;20043;-70
2022/07/15 04:55:47;;;;;;;7.88;2.00;;;16.90;99.90;;;;;;5079522;28;20045;-72
2022/07/15 04:58:14;;;;;;;6.85;2.08;;;16.80;99.90;;;;;;5079504;28;20119;-71
2022/07/15 05:00:45;;;;;;;5.13;2.20;;;16.70;99.90;;;;;;5080326;28;20024;-72
2022/07/15 05:03:13;;;;;;;9.32;2.53;;;16.70;99.90;;;;;;5079481;28;20086;-70
2022/07/15 05:05:39;;;;;;;5.32;2.35;;;16.50;99.90;;;;;;5047021;28;20029;-71
2022/07/15 05:08:08;;;;;;;5.97;2.00;;;16.20;99.90;;;;;;5079813;28;20055;-71
2022/07/15 05:10:41;;;;;;;4.05;2.03;;;16.20;99.90;;;;;;5081539;28;20029;-71
2022/07/15 05:13:07;;;;;;;6.25;1.98;;;16.30;99.90;;;;;;5063095;28;20075;-70
2022/07/15 05:15:34;;;;;;;4.18;1.70;;;16.30;99.90;;;;;;5079835;28;20035;-72
2022/07/15 05:18:09;;;;;;;7.88;2.08;;;16.40;99.90;;;;;;5064288;28;20102;-71
2022/07/15 05:20:35;;;;;;;7.97;1.52;;;16.60;99.90;;;;;;5079796;28;20028;-72
2022/07/15 05:23:01;;;;;;;6.60;1.70;;;16.70;99.90;;;;;;5079390;28;20028;-70
2022/07/15 05:25:31;;;;;;;5.00;1.60;;;16.70;99.90;;;;;;5063075;28;20419;-72
2022/07/15 05:27:57;;;;;;;5.28;1.95;;;16.80;99.90;;;;;;5078754;28;20025;-70
2022/07/15 05:30:23;;;;;;;6.80;1.50;;;16.90;99.90;;;;;;5078662;28;20112;-71
2022/07/15 05:32:49;;;;;;;4.97;1.50;;;17.10;99.90;;;;;;5078694;28;20039;-71
2022/07/15 05:35:21;;;;;;;5.45;1.70;;;17.20;99.90;;;;;;5078784;28;20025;-71
2022/07/15 05:37:47;;;;;;;6.88;1.40;;;17.40;99.90;;;;;;5079357;28;20036;-72
2022/07/15 05:40:21;;;;;;;7.90;1.58;;;17.40;99.90;;;;;;5079034;28;20088;-70
2022/07/15 05:42:51;;;;;;;5.68;1.27;;;17.40;99.90;;;;;;5078777;28;20040;-70
2022/07/15 05:45:17;;;;;;;5.53;1.05;;;17.60;99.90;;;;;;5078829;28;20028;-71
2022/07/15 05:47:50;;;;;;;4.57;1.00;;;17.50;99.90;;;;;;5078938;28;20031;-71
2022/07/15 05:50:20;;;;;;;3.50;0.73;;;17.60;99.90;;;;;;5078687;28;20064;-71
2022/07/15 05:52:47;;;;;;;5.35;1.10;;;17.70;99.90;;;;;;5078342;28;20032;-72
2022/07/15 05:55:13;;;;;;;4.10;0.80;;;17.80;99.90;;;;;;5061415;28;20345;-70
2022/07/15 05:57:39;;;;;;;8.25;1.20;;;17.90;99.90;;;;;;5078692;28;20246;-69
2022/07/15 06:00:07;;;;;;;5.43;0.90;;;17.90;99.90;;;;;;5061740;28;20043;-69
2022/07/15 06:02:39;;;;;;;4.85;0.68;;;17.90;99.90;;;;;;5078449;28;20109;-71
2022/07/15 06:05:09;;;;;;;4.20;0.93;;;18.00;99.90;;;;;;5079082;28;20036;-71
2022/07/15 06:07:37;;;;;;;3.58;0.63;;;18.00;99.90;;;;;;5078777;28;20119;-71
2022/07/15 06:10:05;;;;;;;5.68;0.90;;;18.10;99.90;;;;;;5078177;28;20059;-71
2022/07/15 06:12:32;;;;;;;6.32;0.90;;;18.10;99.90;;;;;;5077711;28;20444;-72
2022/07/15 06:14:59;;;;;;;6.22;0.68;;;18.20;99.90;;;;;;5077706;28;20059;-72
2022/07/15 06:17:25;;;;;;;6.63;1.23;;;18.30;99.90;;;;;;5078750;28;20036;-71
2022/07/15 06:19:54;;;;;;;4.78;0.82;;;18.20;99.90;;;;;;5078086;28;20040;-71
2022/07/15 06:22:19;;;;;;;5.88;0.98;;;18.20;99.90;;;;;;5061709;28;20032;-71
2022/07/15 06:24:46;;;;;;;3.88;0.75;;;18.30;99.90;;;;;;5078686;28;20408;-72
2022/07/15 06:27:11;;;;;;;2.60;0.70;;;18.50;99.90;;;;;;5077986;28;20029;-70
2022/07/15 06:29:37;;;;;;;5.45;0.77;;;18.60;99.90;;;;;;5079558;28;20035;-70
2022/07/15 06:32:03;;;;;;;3.35;0.80;;;18.60;99.90;;;;;;5078936;28;20029;-68
2022/07/15 06:34:29;;;;;;;4.13;0.60;;;18.70;99.90;;;;;;5078178;28;20044;-69
2022/07/15 06:36:55;;;;;;;2.80;0.80;;;18.60;99.90;;;;;;5080073;28;20320;-68
2022/07/15 06:39:24;;;;;;;3.60;0.88;;;18.60;99.90;;;;;;5079528;28;20064;-67
2022/07/15 06:41:50;;;;;;;2.88;0.80;;;18.70;99.90;;;;;;5078248;28;20032;-70
2022/07/15 06:44:16;;;;;;;2.53;0.50;;;18.70;99.90;;;;;;5079094;28;20326;-67
2022/07/15 06:46:45;;;;;;;4.10;0.90;;;18.80;99.90;;;;;;5079618;28;20104;-69
2022/07/15 06:49:11;;;;;;;2.97;0.50;;;18.80;99.90;;;;;;5079985;28;20067;-71
2022/07/15 06:51:37;;;;;;;4.65;0.60;;;18.80;99.90;;;;;;5078810;28;20032;-67
2022/07/15 06:54:03;;;;;;;2.97;0.73;;;18.80;99.90;;;;;;5078780;28;20043;-68
2022/07/15 06:56:31;;;;;;;4.10;0.60;;;19.00;99.90;;;;;;5078198;28;20056;-68
2022/07/15 06:58:57;;;;;;;3.15;0.80;;;18.90;99.90;;;;;;5078641;28;20093;-68
2022/07/15 07:01:23;;;;;;;3.85;0.80;;;18.90;99.90;;;;;;5079939;28;20342;-71
2022/07/15 07:03:49;;;;;;;4.07;0.90;;;19.00;99.90;;;;;;5079351;28;20407;-70
2022/07/15 07:06:15;;;;;;;5.45;0.73;;;19.10;99.90;;;;;;5079938;28;20101;-68
2022/07/15 07:08:40;;;;;;;2.53;0.70;;;19.20;99.90;;;;;;5078757;28;20304;-71
2022/07/15 07:11:06;;;;;;;3.88;0.60;;;19.20;99.90;;;;;;5079259;28;20042;-67
2022/07/15 07:13:32;;;;;;;3.80;0.60;;;19.10;99.90;;;;;;5079341;28;20028;-68
2022/07/15 07:15:59;;;;;;;3.38;0.70;;;19.20;99.90;;;;;;5078920;28;20040;-70
2022/07/15 07:18:25;;;;;;;4.25;0.55;;;19.20;99.90;;;;;;5078130;28;20110;-69
2022/07/15 07:20:50;;;;;;;1.92;0.60;;;19.20;99.90;;;;;;5079228;28;20032;-66
2022/07/15 07:23:16;;;;;;;6.60;0.70;;;19.30;99.90;;;;;;5078695;28;20066;-69
2022/07/15 07:25:42;;;;;;;3.45;0.70;;;19.40;99.90;;;;;;5077980;28;20040;-66
2022/07/15 07:28:08;;;;;;;2.53;0.60;;;19.50;99.90;;;;;;5062342;28;20186;-69
2022/07/15 07:30:34;;;;;;;1.92;0.57;;;19.50;99.90;;;;;;5079243;28;20385;-68
2022/07/15 07:33:00;;;;;;;4.25;0.70;;;19.50;99.90;;;;;;5078763;28;20396;-67
2022/07/15 07:35:26;;;;;;;4.68;0.70;;;19.50;99.90;;;;;;5079364;28;20029;-69
2022/07/15 07:37:52;;;;;;;3.25;0.50;;;19.60;99.90;;;;;;5078649;28;20041;-69
2022/07/15 07:40:17;;;;;;;3.28;0.60;;;19.50;99.90;;;;;;5078826;28;20457;-68
2022/07/15 07:42:44;;;;;;;5.20;0.80;;;19.60;99.90;;;;;;5079687;28;20029;-69
2022/07/15 07:45:13;;;;;;;1.65;0.55;;;19.60;99.90;;;;;;5077513;28;20043;-69
2022/07/15 07:47:43;;;;;;;2.97;0.43;;;19.60;99.90;;;;;;5078589;28;20138;-70
2022/07/15 07:50:09;;;;;;;2.40;0.52;;;19.80;99.90;;;;;;5078573;28;20033;-69
2022/07/15 07:52:35;;;;;;;3.10;0.68;;;19.70;99.90;;;;;;5079264;28;20036;-69
2022/07/15 07:55:01;;;;;;;5.45;0.50;;;19.80;99.90;;;;;;5078762;28;20029;-69
2022/07/15 07:57:27;;;;;;;2.90;0.82;;;19.80;99.90;;;;;;5077076;28;20045;-69
2022/07/15 07:59:52;;;;;;;2.60;0.70;;;19.90;99.90;;;;;;5077948;28;20032;-66
2022/07/15 08:02:19;;;;;;;2.42;0.70;;;19.90;99.90;;;;;;5078921;28;20063;-67
2022/07/15 08:04:45;;;;;;;3.30;0.80;;;19.80;99.90;;;;;;5078614;28;20044;-67
2022/07/15 08:07:11;;;;;;;3.65;0.98;;;19.80;99.90;;;;;;5078144;28;20024;-71
2022/07/15 08:09:37;;;;;;;3.58;0.80;;;20.00;99.90;;;;;;5061732;28;20055;-68
2022/07/15 08:12:03;;;;;;;1.73;0.38;;;20.10;99.90;;;;;;5078964;28;20060;-70
2022/07/15 08:14:29;;;;;;;2.08;0.50;;;20.20;99.90;;;;;;5078619;28;20036;-68
2022/07/15 08:16:55;;;;;;;2.17;0.65;;;20.40;99.90;;;;;;5078209;28;20274;-67
2022/07/15 08:19:20;;;;;;;2.20;0.80;;;20.40;99.90;;;;;;5078356;28;20304;-69
2022/07/15 08:21:46;;;;;;;2.80;0.80;;;20.30;99.90;;;;;;5078175;28;20045;-69
2022/07/15 08:24:12;;;;;;;3.58;0.50;;;20.40;99.90;;;;;;5061844;28;20424;-69
2022/07/15 08:26:39;;;;;;;4.07;0.70;;;20.30;99.90;;;;;;5080024;28;20029;-69
2022/07/15 08:29:05;;;;;;;3.83;0.45;;;20.40;99.90;;;;;;5077518;28;20043;-69
2022/07/15 08:31:32;;;;;;;2.20;0.50;;;20.50;99.90;;;;;;5078063;28;20107;-69
2022/07/15 08:33:58;;;;;;;3.30;0.70;;;20.40;99.90;;;;;;5078199;28;20067;-68
2022/07/15 08:36:24;;;;;;;2.00;0.52;;;20.30;99.90;;;;;;5081628;28;20028;-67
2022/07/15 08:38:50;;;;;;;2.53;0.60;;;20.10;99.90;;;;;;5082071;28;20051;-71
2022/07/15 08:41:16;;;;;;;4.28;0.57;;;20.10;99.90;;;;;;5082502;28;20303;-70
2022/07/15 08:43:41;;;;;;;2.53;0.47;;;20.30;99.90;;;;;;5082330;28;20050;-69
2022/07/15 08:46:08;;;;;;;4.32;0.75;;;20.40;99.90;;;;;;5081042;28;20123;-69
2022/07/15 08:48:37;;;;;;;4.32;0.60;;;20.40;99.90;;;;;;5081822;28;20091;-69
2022/07/15 08:51:07;;;;;;;3.70;0.70;;;20.40;99.90;;;;;;5083039;28;20016;-69
2022/07/15 08:53:33;;;;;;;2.05;0.60;;;20.60;99.90;;;;;;5081977;28;20029;-68
2022/07/15 08:56:00;;;;;;;2.88;0.55;;;20.60;99.90;;;;;;5081965;28;20067;-69
2022/07/15 08:58:26;;;;;;;1.73;0.50;;;20.50;99.90;;;;;;5083233;28;20047;-70
2022/07/15 09:00:52;;;;;;;1.98;0.45;;;20.30;99.90;;;;;;5083242;28;20037;-68
2022/07/15 09:03:18;;;;;;;3.78;0.50;;;20.50;99.90;;;;;;5083207;28;20045;-70
2022/07/15 09:05:44;;;;;;;2.88;0.70;;;20.70;99.90;;;;;;5082565;28;20090;-69
2022/07/15 09:08:11;;;;;;;2.80;0.52;;;20.90;99.90;;;;;;5081440;28;20296;-69
2022/07/15 09:10:59;;;;;;;1.65;0.40;;;20.90;99.90;;;;;;5082386;28;20031;-68
2022/07/15 09:13:38;;;;;;;3.08;0.50;;;20.70;99.90;;;;;;5081581;28;20037;-69
2022/07/15 09:16:19;;;;;;;2.42;0.60;;;20.90;99.90;;;;;;5080930;28;20024;-71
2022/07/15 09:18:45;;;;;;;3.08;0.52;;;21.20;99.90;;;;;;5083056;28;20078;-68
2022/07/15 09:21:16;;;;;;;2.05;0.65;;;20.90;99.90;;;;;;5081865;28;20032;-69
2022/07/15 09:23:42;;;;;;;2.70;0.50;;;20.90;99.90;;;;;;5080271;28;20029;-68
2022/07/15 09:26:28;;;;;;;2.15;0.40;;;21.20;99.90;;;;;;5080072;28;20032;-69
2022/07/15 09:28:55;;;;;;;3.20;0.50;;;21.40;99.90;;;;;;5080433;28;20025;-66
2022/07/15 09:34:17;;;;;;;3.00;0.60;;;21.10;99.90;;;;;;5080436;28;20024;-68
2022/07/15 09:36:50;;;;;;;3.00;0.70;;;21.20;99.90;;;;;;5080809;28;20029;-69
2022/07/15 09:39:17;;;;;;;4.05;0.65;;;21.10;99.90;;;;;;5080994;28;20342;-68
2022/07/15 09:41:45;;;;;;;3.83;0.60;;;21.10;99.90;;;;;;5080185;28;20036;-71
2022/07/15 09:44:13;;;;;;;2.15;0.50;;;21.20;99.90;;;;;;5080889;28;20036;-67
2022/07/15 09:46:49;;;;;;;1.55;0.50;;;21.30;99.90;;;;;;5079171;28;20032;-69
2022/07/15 09:49:27;;;;;;;1.95;0.50;;;21.40;99.90;;;;;;5080398;28;20063;-68
2022/07/15 09:52:10;;;;;;;1.67;0.55;;;21.50;99.90;;;;;;5081107;28;20071;-68
2022/07/15 09:54:40;;;;;;;1.52;0.50;;;21.70;99.90;;;;;;5080153;28;20066;-70
2022/07/15 09:57:09;;;;;;;2.03;0.60;;;22.10;99.90;;;;;;5079095;28;20139;-68
2022/07/15 09:59:36;;;;;;;3.05;0.65;;;22.50;99.90;;;;;;5081369;28;20092;-67
2022/07/15 10:02:02;;;;;;;1.58;0.80;;;22.40;99.90;;;;;;5081632;28;20097;-68
2022/07/15 10:04:29;;;;;;;3.03;0.70;;;22.80;99.90;;;;;;5081326;28;20033;-68
2022/07/15 10:06:59;;;;;;;2.00;0.90;;;23.00;99.90;;;;;;5080834;28;20050;-68
2022/07/15 10:09:28;;;;;;;3.60;1.40;;;23.40;99.90;;;;;;5079879;28;20032;-68
2022/07/15 10:11:57;;;;;;;4.30;1.63;;;23.80;99.90;;;;;;5080136;28;20031;-67
2022/07/15 10:14:42;;;;;;;6.93;1.90;;;24.10;99.90;;;;;;5079683;28;20040;-67
2022/07/15 10:17:17;;;;;;;2.80;1.85;;;24.30;99.90;;;;;;5079716;28;20289;-70
2022/07/15 10:20:07;;;;;;;4.80;2.42;;;24.10;99.90;;;;;;5079481;28;20036;-68
2022/07/15 10:22:57;;;;;;;3.67;2.10;;;24.30;99.90;;;;;;5080533;28;20036;-69
2022/07/15 10:25:39;;;;;;;2.45;1.27;;;24.30;99.90;;;;;;5080371;28;20036;-68
2022/07/15 10:28:10;;;;;;;1.88;1.17;;;24.60;99.90;;;;;;5081145;28;20050;-69
2022/07/15 10:30:39;;;;;;;3.63;1.30;;;24.60;99.90;;;;;;5081079;28;20037;-68
2022/07/15 10:33:17;;;;;;;2.47;1.05;;;24.70;99.90;;;;;;5078393;28;20277;-69
2022/07/15 10:35:42;;;;;;;2.38;1.17;;;24.70;99.90;;;;;;5079691;28;20024;-68
2022/07/15 10:38:25;;;;;;;3.13;0.98;;;24.60;99.90;;;;;;5079618;28;20029;-69
2022/07/15 10:41:01;;;;;;;2.55;0.80;;;24.50;99.90;;;;;;5080540;28;20033;-69
2022/07/15 10:43:46;;;;;;;1.77;0.70;;;24.60;99.90;;;;;;5080316;28;20101;-68
2022/07/15 10:46:18;;;;;;;2.03;0.70;;;24.30;99.90;;;;;;5080108;28;20031;-69
2022/07/15 10:48:45;;;;;;;3.20;0.98;;;24.70;99.90;;;;;;5080394;28;20469;-69
2022/07/15 10:51:12;;;;;;;1.65;0.60;;;24.90;99.90;;;;;;5078723;28;20028;-70
2022/07/15 10:53:46;;;;;;;3.58;0.75;;;25.00;99.90;;;;;;5079448;28;20057;-70
2022/07/15 10:56:32;;;;;;;4.10;0.80;;;25.00;99.90;;;;;;5079784;28;20045;-69
2022/07/15 10:59:11;;;;;;;2.00;0.85;;;24.70;99.90;;;;;;5078385;28;20371;-69
2022/07/15 11:01:38;;;;;;;2.30;0.60;;;24.80;99.90;;;;;;5079181;28;20119;-70
2022/07/15 11:04:17;;;;;;;2.65;0.52;;;24.50;99.90;;;;;;5080989;28;20041;-72
2022/07/15 11:07:01;;;;;;;5.28;0.90;;;24.60;99.90;;;;;;5078483;28;20028;-67
2022/07/15 11:09:52;;;;;;;2.40;0.77;;;25.40;99.90;;;;;;5059833;28;20024;-62
2022/07/15 11:12:24;;;;;;;4.60;0.90;;;25.80;99.90;;;;;;5077014;28;20033;-62
2022/07/15 11:14:55;;;;;;;3.40;0.60;;;26.40;99.90;;;;;;5076891;28;20101;-63
2022/07/15 11:17:22;;;;;;;1.00;0.50;;;26.50;99.90;;;;;;5077217;28;20080;-61
2022/07/15 11:19:50;;;;;;;1.85;0.63;;;27.00;99.10;;;;;;5076824;28;20115;-63
2022/07/15 11:22:18;;;;;;;2.72;0.65;;;27.30;97.60;;;;;;5077174;28;20388;-63
2022/07/15 11:24:44;;;;;;;0.93;0.50;;;27.20;96.40;;;;;;5076633;28;20063;-62
2022/07/15 11:27:10;;;;;;;1.50;0.57;;;26.80;96.80;;;;;;5076879;28;20032;-62
2022/07/15 11:29:43;;;;;;;5.03;0.65;;;26.80;96.20;;;;;;5076734;28;20025;-63
2022/07/15 11:32:10;;;;;;;1.45;0.60;;;27.20;95.60;;;;;;5076757;28;20024;-62
2022/07/15 11:34:56;;;;;;;3.80;0.80;;;27.60;94.40;;;;;;5076179;28;20032;-65
2022/07/15 11:37:34;;;;;;;3.53;0.80;;;27.20;94.20;;;;;;5077300;28;20028;-63
2022/07/15 11:40:10;;;;;;;1.35;0.68;;;27.00;94.60;;;;;;5076689;28;20028;-63
2022/07/15 11:45:36;;;;;;;4.20;0.75;;;26.80;95.50;;;;;;5076618;28;20062;-64
2022/07/15 11:48:06;;;;;;;1.55;0.80;;;29.00;92.30;;;;;;5076788;28;20300;-62
2022/07/15 11:50:33;;;;;;;2.17;0.77;;;30.10;88.80;;;;;;5076541;28;20043;-65
2022/07/15 11:52:59;;;;;;;1.98;0.70;;;31.10;81.60;;;;;;5059488;28;20487;-61
2022/07/15 11:55:25;;;;;;;1.90;0.70;;;32.40;75.30;;;;;;5076401;28;20060;-65
2022/07/15 11:57:51;;;;;;;3.22;0.80;;;32.90;69.60;;;;;;5076356;28;20407;-63
2022/07/15 12:00:19;;;;;;;5.32;0.77;;;33.40;69.50;;;;;;5076409;28;20108;-64
2022/07/15 12:02:45;;;;;;;4.05;0.70;;;34.60;64.30;;;;;;5076444;28;20021;-61
2022/07/15 12:05:11;;;;;;;2.55;0.70;;;34.70;61.10;;;;;;5076360;28;20040;-61
2022/07/15 12:07:45;;;;;;;2.47;0.90;;;33.50;63.00;;;;;;5076553;28;20338;-62
2022/07/15 12:10:12;;;;;;;1.30;0.77;;;31.60;66.20;;;;;;5076835;28;20017;-62
2022/07/15 12:12:42;;;;;;;1.77;0.60;;;30.80;67.70;;;;;;5080256;28;20393;-62
2022/07/15 12:15:09;;;;;;;1.85;0.65;;;30.10;67.90;;;;;;5080336;28;20047;-64
2022/07/15 12:17:35;;;;;;;1.70;0.70;;;29.70;69.10;;;;;;5080238;28;20045;-62
2022/07/15 12:20:03;;;;;;;4.47;0.93;;;28.90;72.40;;;;;;5080175;28;20040;-62
2022/07/15 12:22:29;;;;;;;3.60;0.90;;;28.80;73.70;;;;;;5080107;28;20032;-56
2022/07/15 12:24:55;;;;;;;4.68;0.90;;;29.20;73.10;;;;;;5079982;28;20032;-56
2022/07/15 12:27:47;;;;;;;2.10;0.88;;;29.80;73.70;;;;;;5079787;28;20044;-56
2022/07/15 12:30:13;;;;;;;2.60;0.80;;;30.10;71.60;;;;;;5079700;28;20037;-57
2022/07/15 12:32:39;;;;;;;3.03;0.80;;;29.60;70.00;;;;;;5080549;28;20059;-56
2022/07/15 12:35:06;;;;;;;1.77;0.68;;;29.40;74.20;;;;;;5079086;28;20037;-55
2022/07/15 12:37:35;;;;;;;1.63;0.73;;;30.50;70.80;;;;;;5079863;28;20296;-56
2022/07/15 12:40:05;;;;;;;1.92;0.75;;;31.70;68.70;;;;;;5079681;28;20032;-57
2022/07/15 12:42:37;;;;;;;3.28;0.68;;;33.10;66.60;;;;;;5080375;28;20036;-57
2022/07/15 12:45:09;;;;;;;2.63;0.60;;;34.30;63.40;;;;;;5079640;28;20024;-55
2022/07/15 12:47:36;;;;;;;1.63;0.60;;;33.50;58.80;;;;;;5079759;28;20085;-56
2022/07/15 12:50:05;;;;;;;1.35;0.50;;;32.50;62.10;;;;;;5079641;28;20025;-57
2022/07/15 12:52:37;;;;;;;0.60;0.45;;;33.90;60.10;;;;;;5079616;28;20036;-57
2022/07/15 12:55:21;;;;;;;1.42;0.60;;;35.10;57.10;;;;;;5079532;28;20120;-58
2022/07/15 12:57:48;;;;;;;1.70;0.68;;;33.30;58.50;;;;;;5079410;28;20037;-56
2022/07/15 13:00:22;;;;;;;1.60;0.73;;;33.70;58.30;;;;;;5078630;28;20043;-57
2022/07/15 13:03:06;;;;;;;3.05;0.60;;;34.60;58.30;;;;;;5079967;28;20136;-57